| time (UTC) | temp F | wind direction | speed MPH | gust MPH | rain 1hr in | rain 24hr in | rain mn in | humidity % | barometer mb |
| 20260505152017 | 77 | 248 | 2.0 | 8.0 | 0.00 | 0.00 | 0.00 | 48 | 1011.9 |
| 20260505151517 | 76 | 270 | 4.0 | 10.0 | 0.00 | 0.00 | 0.00 | 50 | 1011.8 |
| 20260505151237 | 76 | 248 | 3.0 | 7.0 | 0.00 | 0.00 | 0.00 | 50 | 1011.6 |
| 20260505151017 | 76 | 248 | 3.0 | 7.0 | 0.00 | 0.00 | 0.00 | 50 | 1011.6 |
| 20260505150736 | 76 | 248 | 3.0 | 7.0 | 0.00 | 0.00 | 0.00 | 49 | 1011.6 |
| 20260505150517 | 76 | 248 | 3.0 | 7.0 | 0.00 | 0.00 | 0.00 | 49 | 1011.6 |
| 20260505140517 | 72 | 270 | 2.0 | 6.0 | 0.00 | 0.00 | 0.00 | 55 | 1012.3 |
| 20260505125017 | 66 | 270 | 3.0 | 8.0 | 0.00 | 0.00 | 0.00 | 67 | 1012.2 |
| 20260505124517 | 65 | 248 | 3.0 | 8.0 | 0.00 | 0.00 | 0.00 | 68 | 1012.2 |
| 20260505124017 | 65 | 270 | 3.0 | 8.0 | 0.00 | 0.00 | 0.00 | 68 | 1012.2 |
| 20260505123516 | 64 | 248 | 1.0 | 9.0 | 0.00 | 0.00 | 0.00 | 70 | 1012.1 |
| 20260505123017 | 64 | 270 | 3.0 | 7.0 | 0.00 | 0.00 | 0.00 | 71 | 1012.2 |
| 20260505122517 | 64 | 248 | 2.0 | 9.0 | 0.00 | 0.00 | 0.00 | 71 | 1012.2 |
| 20260505122017 | 64 | 270 | 2.0 | 4.0 | 0.00 | 0.00 | 0.00 | 71 | 1012.2 |
| 20260505121516 | 63 | 248 | 1.0 | 3.0 | 0.00 | 0.00 | 0.00 | 72 | 1012.3 |
| 20260505121017 | 63 | 248 | 1.0 | 4.0 | 0.00 | 0.00 | 0.00 | 72 | 1012.3 |
| 20260505120517 | 63 | 0.0 | 2.0 | 0.00 | 0.00 | 0.00 | 73 | 1012.3 | |
| 20260505120017 | 62 | 248 | 1.0 | 3.0 | 0.00 | 0.00 | 0.00 | 74 | 1012.2 |
| 20260505115517 | 62 | 0.0 | 3.0 | 0.00 | 0.00 | 0.00 | 75 | 1012.1 | |
| 20260505115017 | 61 | 0.0 | 1.0 | 0.00 | 0.00 | 0.00 | 76 | 1012.3 | |
| 20260505114517 | 61 | 0.0 | 2.0 | 0.00 | 0.00 | 0.00 | 77 | 1012.1 | |
| 20260505114200 | 60 | 0.0 | 2.0 | 0.00 | 0.00 | 0.00 | 78 | 1012.1 | |
| 20260505114016 | 60 | 0.0 | 2.0 | 0.00 | 0.00 | 0.00 | 78 | 1012.1 | |
| 20260505113517 | 60 | 0.0 | 0.0 | 0.00 | 0.00 | 0.00 | 78 | 1012.1 | |
| 20260505113017 | 59 | 0.0 | 0.0 | 0.00 | 0.00 | 0.00 | 79 | 1012.2 | |
| 20260505112516 | 59 | 0.0 | 0.0 | 0.00 | 0.00 | 0.00 | 79 | 1012.2 | |
| 20260505112016 | 59 | 0.0 | 0.0 | 0.00 | 0.00 | 0.00 | 79 | 1012.2 | |
| 20260505111517 | 59 | 0.0 | 0.0 | 0.00 | 0.00 | 0.00 | 78 | 1012.3 | |
| 20260505111016 | 59 | 0.0 | 0.0 | 0.00 | 0.00 | 0.00 | 79 | 1012.2 | |
| 20260505110516 | 58 | 0.0 | 0.0 | 0.00 | 0.00 | 0.00 | 81 | 1012.2 | |
| 20260505102119 | 58 | 0.0 | 0.0 | 0.00 | 0.00 | 0.00 | 80 | 1012.3 | |
| 20260505102016 | 58 | 0.0 | 0.0 | 0.00 | 0.00 | 0.00 | 80 | 1012.3 | |
| 20260505101517 | 58 | 0.0 | 0.0 | 0.00 | 0.00 | 0.00 | 80 | 1012.1 | |
| 20260505101017 | 58 | 0.0 | 0.0 | 0.00 | 0.00 | 0.00 | 80 | 1012.2 | |
| 20260505100516 | 58 | 0.0 | 1.0 | 0.00 | 0.00 | 0.00 | 80 | 1012.1 | |
| 20260505100150 | 57 | 315 | 1.0 | 3.0 | 0.00 | 0.00 | 0.00 | 80 | 1012.0 |
| 20260505100035 | 57 | 0.0 | 2.0 | 0.00 | 0.00 | 0.00 | 81 | 1012.0 | |
| 20260505095517 | 57 | 0.0 | 2.0 | 0.00 | 0.00 | 0.00 | 81 | 1012.0 | |
| 20260505095016 | 57 | 270 | 1.0 | 4.0 | 0.00 | 0.00 | 0.00 | 80 | 1011.5 |
| 20260505094516 | 57 | 270 | 1.0 | 4.0 | 0.00 | 0.00 | 0.00 | 80 | 1011.4 |
| 20260505094016 | 57 | 270 | 2.0 | 4.0 | 0.00 | 0.00 | 0.00 | 80 | 1011.2 |
| 20260505093516 | 57 | 248 | 1.0 | 6.0 | 0.00 | 0.00 | 0.00 | 80 | 1011.1 |
| 20260505093159 | 57 | 248 | 2.0 | 5.0 | 0.00 | 0.00 | 0.00 | 79 | 1011.2 |
| 20260505093016 | 57 | 248 | 2.0 | 5.0 | 0.00 | 0.00 | 0.00 | 79 | 1011.2 |
| 20260505092736 | 58 | 270 | 1.0 | 5.0 | 0.00 | 0.00 | 0.00 | 79 | 1011.1 |
| 20260505092516 | 58 | 270 | 1.0 | 5.0 | 0.00 | 0.00 | 0.00 | 79 | 1011.1 |
| 20260505092016 | 58 | 248 | 2.0 | 6.0 | 0.00 | 0.00 | 0.00 | 79 | 1011.0 |
| 20260505091516 | 58 | 248 | 1.0 | 9.0 | 0.00 | 0.00 | 0.00 | 79 | 1011.1 |
| 20260505091016 | 58 | 270 | 2.0 | 5.0 | 0.00 | 0.00 | 0.00 | 79 | 1011.1 |
| 20260505090516 | 58 | 270 | 1.0 | 3.0 | 0.00 | 0.00 | 0.00 | 78 | 1011.1 |
| 20260505090017 | 58 | 270 | 2.0 | 5.0 | 0.00 | 0.00 | 0.00 | 78 | 1011.1 |
| 20260505085516 | 58 | 270 | 2.0 | 5.0 | 0.00 | 0.00 | 0.00 | 78 | 1011.1 |
| 20260505085016 | 58 | 270 | 2.0 | 3.0 | 0.00 | 0.00 | 0.00 | 78 | 1011.1 |
| 20260505084516 | 58 | 270 | 2.0 | 6.0 | 0.00 | 0.00 | 0.00 | 78 | 1011.2 |
| 20260505084016 | 58 | 270 | 2.0 | 5.0 | 0.00 | 0.00 | 0.00 | 78 | 1011.2 |
| 20260505083516 | 58 | 270 | 2.0 | 5.0 | 0.00 | 0.00 | 0.00 | 78 | 1011.3 |
| 20260505083017 | 58 | 270 | 2.0 | 8.0 | 0.00 | 0.00 | 0.00 | 78 | 1011.2 |
| 20260505082516 | 58 | 270 | 3.0 | 7.0 | 0.00 | 0.00 | 0.00 | 78 | 1011.3 |
| 20260505082016 | 57 | 270 | 2.0 | 7.0 | 0.00 | 0.00 | 0.00 | 79 | 1011.2 |
| 20260505081516 | 57 | 248 | 2.0 | 6.0 | 0.00 | 0.00 | 0.00 | 79 | 1010.9 |
| 20260505081016 | 57 | 248 | 1.0 | 5.0 | 0.00 | 0.00 | 0.00 | 79 | 1010.9 |
| 20260505080516 | 57 | 270 | 1.0 | 4.0 | 0.00 | 0.00 | 0.00 | 79 | 1011.2 |
| 20260505080016 | 57 | 270 | 1.0 | 3.0 | 0.00 | 0.00 | 0.00 | 79 | 1011.2 |
| 20260505075516 | 57 | 248 | 1.0 | 5.0 | 0.00 | 0.00 | 0.00 | 79 | 1011.1 |
| 20260505075016 | 57 | 270 | 1.0 | 4.0 | 0.00 | 0.00 | 0.00 | 79 | 1011.1 |
| 20260505074516 | 57 | 270 | 1.0 | 4.0 | 0.00 | 0.00 | 0.00 | 79 | 1011.0 |
| 20260505074016 | 57 | 270 | 1.0 | 4.0 | 0.00 | 0.00 | 0.00 | 79 | 1010.8 |
| 20260505073516 | 57 | 270 | 1.0 | 5.0 | 0.00 | 0.00 | 0.00 | 79 | 1010.8 |
| 20260505073016 | 57 | 270 | 1.0 | 5.0 | 0.00 | 0.00 | 0.00 | 79 | 1010.8 |
| 20260505072516 | 57 | 270 | 1.0 | 5.0 | 0.00 | 0.00 | 0.00 | 79 | 1010.7 |
| 20260505072016 | 57 | 270 | 2.0 | 4.0 | 0.00 | 0.00 | 0.00 | 79 | 1010.8 |
| 20260505071516 | 57 | 248 | 1.0 | 3.0 | 0.00 | 0.00 | 0.00 | 79 | 1010.8 |
| 20260505071016 | 57 | 248 | 1.0 | 3.0 | 0.00 | 0.00 | 0.00 | 79 | 1010.8 |
| 20260505070924 | 57 | 248 | 1.0 | 4.0 | 0.00 | 0.00 | 0.00 | 78 | 1010.8 |
| 20260505070516 | 57 | 248 | 1.0 | 4.0 | 0.00 | 0.00 | 0.00 | 78 | 1010.8 |
| 20260505070016 | 57 | 248 | 1.0 | 3.0 | 0.00 | 0.00 | 0.00 | 78 | 1010.8 |
| 20260505065516 | 57 | 248 | 2.0 | 4.0 | 0.00 | 0.00 | 0.00 | 77 | 1010.8 |
| 20260505065016 | 57 | 270 | 1.0 | 3.0 | 0.00 | 0.00 | 0.00 | 77 | 1010.8 |
| 20260505064516 | 57 | 248 | 1.0 | 4.0 | 0.00 | 0.00 | 0.00 | 77 | 1010.8 |
| 20260505064016 | 58 | 248 | 1.0 | 3.0 | 0.00 | 0.00 | 0.00 | 76 | 1010.9 |
| 20260505063516 | 58 | 248 | 1.0 | 4.0 | 0.00 | 0.00 | 0.00 | 76 | 1010.9 |
| 20260505063016 | 58 | 248 | 2.0 | 3.0 | 0.00 | 0.00 | 0.00 | 76 | 1010.9 |
| 20260505062516 | 58 | 248 | 2.0 | 5.0 | 0.00 | 0.00 | 0.00 | 75 | 1010.9 |
| 20260505062016 | 58 | 270 | 1.0 | 3.0 | 0.00 | 0.00 | 0.00 | 75 | 1010.9 |
| 20260505061606 | 58 | 248 | 1.0 | 4.0 | 0.00 | 0.00 | 0.00 | 75 | 1010.9 |
| 20260505061516 | 58 | 248 | 1.0 | 4.0 | 0.00 | 0.00 | 0.00 | 75 | 1010.9 |
| 20260505061016 | 58 | 248 | 2.0 | 6.0 | 0.00 | 0.00 | 0.00 | 74 | 1010.8 |
| 20260505060516 | 58 | 248 | 1.0 | 6.0 | 0.00 | 0.00 | 0.00 | 74 | 1010.8 |
| 20260505060016 | 58 | 248 | 1.0 | 2.0 | 0.00 | 0.00 | 0.00 | 74 | 1010.9 |
| 20260505055516 | 59 | 248 | 1.0 | 3.0 | 0.00 | 0.00 | 0.00 | 74 | 1011.0 |
| 20260505055016 | 59 | 248 | 1.0 | 5.0 | 0.00 | 0.00 | 0.00 | 74 | 1011.0 |
| 20260505054516 | 59 | 248 | 1.0 | 5.0 | 0.00 | 0.00 | 0.00 | 73 | 1011.1 |
| 20260505054128 | 59 | 248 | 1.0 | 5.0 | 0.00 | 0.00 | 0.00 | 73 | 1011.2 |
| 20260505054016 | 59 | 248 | 1.0 | 5.0 | 0.00 | 0.00 | 0.00 | 73 | 1011.2 |
| 20260505053516 | 59 | 248 | 1.0 | 3.0 | 0.00 | 0.00 | 0.00 | 73 | 1011.2 |
| 20260505053016 | 59 | 248 | 2.0 | 8.0 | 0.00 | 0.00 | 0.00 | 73 | 1011.2 |
| 20260505052516 | 58 | 248 | 1.0 | 3.0 | 0.00 | 0.00 | 0.00 | 73 | 1011.2 |
| 20260505052048 | 58 | 270 | 1.0 | 4.0 | 0.00 | 0.00 | 0.00 | 73 | 1011.3 |
| 20260505052016 | 58 | 270 | 1.0 | 4.0 | 0.00 | 0.00 | 0.00 | 73 | 1011.3 |
| 20260505051516 | 58 | 248 | 1.0 | 5.0 | 0.00 | 0.00 | 0.00 | 73 | 1011.4 |
| 20260505051016 | 58 | 248 | 1.0 | 4.0 | 0.00 | 0.00 | 0.00 | 73 | 1011.4 |
| 20260505050516 | 58 | 248 | 1.0 | 4.0 | 0.00 | 0.00 | 0.00 | 73 | 1011.3 |
| 20260505041516 | 59 | 248 | 1.0 | 3.0 | 0.00 | 0.00 | 0.00 | 70 | 1011.4 |
| 20260505041016 | 59 | 248 | 1.0 | 3.0 | 0.00 | 0.00 | 0.00 | 70 | 1011.4 |
| 20260505040516 | 59 | 248 | 1.0 | 4.0 | 0.00 | 0.00 | 0.00 | 70 | 1011.5 |
| 20260505040149 | 59 | 0.0 | 3.0 | 0.00 | 0.00 | 0.00 | 69 | 1011.4 | |
| 20260505040034 | 59 | 248 | 1.0 | 3.0 | 0.00 | 0.00 | 0.00 | 69 | 1011.4 |
| 20260505035516 | 59 | 248 | 1.0 | 3.0 | 0.00 | 0.00 | 0.00 | 69 | 1011.4 |
| 20260505035225 | 60 | 225 | 1.0 | 7.0 | 0.00 | 0.00 | 0.00 | 69 | 1011.4 |
| 20260505035016 | 60 | 225 | 1.0 | 7.0 | 0.00 | 0.00 | 0.00 | 69 | 1011.4 |
| 20260505034516 | 60 | 248 | 1.0 | 7.0 | 0.00 | 0.00 | 0.00 | 68 | 1011.4 |
| 20260505034016 | 60 | 0.0 | 3.0 | 0.00 | 0.00 | 0.00 | 68 | 1011.5 | |
| 20260505033516 | 60 | 248 | 2.0 | 7.0 | 0.00 | 0.00 | 0.00 | 67 | 1011.5 |
| 20260505033016 | 60 | 248 | 2.0 | 6.0 | 0.00 | 0.00 | 0.00 | 67 | 1011.5 |
| 20260505032516 | 60 | 248 | 1.0 | 6.0 | 0.00 | 0.00 | 0.00 | 67 | 1011.5 |
| 20260505032016 | 60 | 0.0 | 2.0 | 0.00 | 0.00 | 0.00 | 66 | 1011.5 | |
| 20260505031516 | 60 | 225 | 1.0 | 5.0 | 0.00 | 0.00 | 0.00 | 65 | 1011.5 |
| 20260505031111 | 61 | 248 | 1.0 | 5.0 | 0.00 | 0.00 | 0.00 | 65 | 1011.6 |
| 20260505031016 | 61 | 248 | 1.0 | 5.0 | 0.00 | 0.00 | 0.00 | 65 | 1011.6 |
| 20260505030516 | 61 | 248 | 1.0 | 4.0 | 0.00 | 0.00 | 0.00 | 64 | 1011.7 |
| 20260505030018 | 61 | 248 | 2.0 | 7.0 | 0.00 | 0.00 | 0.00 | 64 | 1011.7 |
| 20260505025519 | 61 | 248 | 1.0 | 5.0 | 0.00 | 0.00 | 0.00 | 63 | 1011.8 |
| 20260505025018 | 61 | 248 | 1.0 | 7.0 | 0.00 | 0.00 | 0.00 | 62 | 1011.8 |
| 20260505024518 | 62 | 248 | 2.0 | 6.0 | 0.00 | 0.00 | 0.00 | 61 | 1011.8 |
| 20260505024018 | 62 | 248 | 1.0 | 6.0 | 0.00 | 0.00 | 0.00 | 61 | 1011.8 |
| 20260505023518 | 62 | 248 | 1.0 | 4.0 | 0.00 | 0.00 | 0.00 | 60 | 1011.8 |
| 20260505023018 | 62 | 0.0 | 2.0 | 0.00 | 0.00 | 0.00 | 59 | 1011.8 | |
| 20260505022518 | 63 | 0.0 | 2.0 | 0.00 | 0.00 | 0.00 | 58 | 1011.9 | |
| 20260505022018 | 63 | 248 | 1.0 | 5.0 | 0.00 | 0.00 | 0.00 | 57 | 1012.0 |
| 20260505021815 | 63 | 248 | 1.0 | 4.0 | 0.00 | 0.00 | 0.00 | 57 | 1012.0 |
| 20260505021518 | 63 | 248 | 1.0 | 4.0 | 0.00 | 0.00 | 0.00 | 57 | 1012.0 |
| 20260505021018 | 63 | 248 | 2.0 | 6.0 | 0.00 | 0.00 | 0.00 | 56 | 1012.0 |
| 20260505020518 | 63 | 248 | 1.0 | 4.0 | 0.00 | 0.00 | 0.00 | 55 | 1011.9 |
| 20260505020018 | 63 | 248 | 1.0 | 9.0 | 0.00 | 0.00 | 0.00 | 55 | 1011.9 |
| 20260505015518 | 64 | 248 | 1.0 | 5.0 | 0.00 | 0.00 | 0.00 | 54 | 1011.9 |
| 20260505015018 | 64 | 248 | 1.0 | 4.0 | 0.00 | 0.00 | 0.00 | 53 | 1011.9 |
| 20260505014518 | 64 | 248 | 1.0 | 5.0 | 0.00 | 0.00 | 0.00 | 52 | 1011.9 |
| 20260505014018 | 64 | 248 | 1.0 | 7.0 | 0.00 | 0.00 | 0.00 | 51 | 1011.9 |
| 20260505013518 | 64 | 0.0 | 3.0 | 0.00 | 0.00 | 0.00 | 49 | 1011.9 | |
| 20260505013018 | 65 | 0.0 | 2.0 | 0.00 | 0.00 | 0.00 | 49 | 1011.7 | |
| 20260505012518 | 65 | 0.0 | 1.0 | 0.00 | 0.00 | 0.00 | 49 | 1011.6 | |
| 20260505012018 | 65 | 248 | 1.0 | 3.0 | 0.00 | 0.00 | 0.00 | 48 | 1011.5 |
| 20260505011518 | 65 | 248 | 1.0 | 4.0 | 0.00 | 0.00 | 0.00 | 48 | 1011.5 |
| 20260505011119 | 65 | 0.0 | 2.0 | 0.00 | 0.00 | 0.00 | 48 | 1011.3 | |
| 20260505011018 | 65 | 0.0 | 2.0 | 0.00 | 0.00 | 0.00 | 48 | 1011.3 | |
| 20260505010602 | 65 | 0.0 | 3.0 | 0.00 | 0.00 | 0.00 | 47 | 1011.3 | |
| 20260505010518 | 65 | 0.0 | 3.0 | 0.00 | 0.00 | 0.00 | 47 | 1011.3 | |
| 20260505010018 | 66 | 0.0 | 1.0 | 0.00 | 0.00 | 0.00 | 47 | 1011.3 | |
| 20260505005558 | 66 | 0.0 | 3.0 | 0.00 | 0.00 | 0.00 | 46 | 1011.2 | |
| 20260505005518 | 66 | 0.0 | 3.0 | 0.00 | 0.00 | 0.00 | 46 | 1011.2 | |
| 20260505005110 | 66 | 248 | 1.0 | 3.0 | 0.00 | 0.00 | 0.00 | 46 | 1011.1 |
| 20260505005018 | 66 | 248 | 1.0 | 3.0 | 0.00 | 0.00 | 0.00 | 46 | 1011.1 |
| 20260505004518 | 66 | 248 | 1.0 | 4.0 | 0.00 | 0.00 | 0.00 | 45 | 1011.1 |
| 20260505004018 | 67 | 248 | 1.0 | 2.0 | 0.00 | 0.00 | 0.00 | 45 | 1011.2 |
| 20260505003613 | 67 | 248 | 1.0 | 4.0 | 0.00 | 0.00 | 0.00 | 45 | 1011.1 |
| 20260505003517 | 67 | 248 | 1.0 | 4.0 | 0.00 | 0.00 | 0.00 | 45 | 1011.1 |
| 20260505003018 | 67 | 248 | 1.0 | 4.0 | 0.00 | 0.00 | 0.00 | 45 | 1010.9 |
| 20260505002518 | 67 | 0.0 | 4.0 | 0.00 | 0.00 | 0.00 | 44 | 1010.9 | |
| 20260505002104 | 67 | 248 | 1.0 | 3.0 | 0.00 | 0.00 | 0.00 | 44 | 1010.9 |
| 20260505002018 | 67 | 248 | 1.0 | 3.0 | 0.00 | 0.00 | 0.00 | 44 | 1010.9 |
| 20260505001619 | 68 | 248 | 2.0 | 6.0 | 0.00 | 0.00 | 0.00 | 43 | 1010.9 |
| 20260505001518 | 68 | 248 | 2.0 | 6.0 | 0.00 | 0.00 | 0.00 | 43 | 1010.9 |
| 20260505001117 | 68 | 270 | 1.0 | 4.0 | 0.00 | 0.00 | 0.00 | 43 | 1010.9 |
| 20260505001017 | 68 | 270 | 1.0 | 4.0 | 0.00 | 0.00 | 0.00 | 43 | 1010.9 |
| 20260505000611 | 68 | 248 | 1.0 | 4.0 | 0.00 | 0.00 | 0.00 | 43 | 1010.8 |
| 20260505000518 | 68 | 248 | 1.0 | 4.0 | 0.00 | 0.00 | 0.00 | 43 | 1010.8 |
| 20260505000018 | 68 | 248 | 1.0 | 4.0 | 0.00 | 0.00 | 0.00 | 42 | 1010.7 |
| 20260504235606 | 69 | 248 | 1.0 | 5.0 | 0.00 | 0.00 | 0.00 | 42 | 1010.6 |
| 20260504235518 | 69 | 248 | 1.0 | 5.0 | 0.00 | 0.00 | 0.00 | 42 | 1010.6 |
| 20260504235116 | 69 | 270 | 1.0 | 4.0 | 0.00 | 0.00 | 0.00 | 41 | 1010.6 |
| 20260504235018 | 69 | 270 | 1.0 | 4.0 | 0.00 | 0.00 | 0.00 | 41 | 1010.6 |
| 20260504234517 | 69 | 248 | 2.0 | 5.0 | 0.00 | 0.00 | 0.00 | 41 | 1010.5 |
| 20260504234106 | 70 | 270 | 1.0 | 4.0 | 0.00 | 0.00 | 0.00 | 40 | 1010.6 |
| 20260504234017 | 70 | 270 | 1.0 | 4.0 | 0.00 | 0.00 | 0.00 | 40 | 1010.6 |
| 20260504233559 | 70 | 248 | 2.0 | 7.0 | 0.00 | 0.00 | 0.00 | 40 | 1010.4 |
| 20260504233518 | 70 | 248 | 2.0 | 7.0 | 0.00 | 0.00 | 0.00 | 40 | 1010.4 |
| 20260504233153 | 70 | 270 | 2.0 | 6.0 | 0.00 | 0.00 | 0.00 | 40 | 1010.4 |
| 20260504233018 | 70 | 270 | 2.0 | 6.0 | 0.00 | 0.00 | 0.00 | 40 | 1010.4 |
| 20260504232633 | 70 | 248 | 2.0 | 8.0 | 0.00 | 0.00 | 0.00 | 39 | 1010.3 |
| 20260504232553 | 70 | 248 | 2.0 | 8.0 | 0.00 | 0.00 | 0.00 | 39 | 1010.3 |
| 20260504232517 | 70 | 248 | 2.0 | 8.0 | 0.00 | 0.00 | 0.00 | 39 | 1010.3 |
| 20260504232017 | 71 | 248 | 1.0 | 7.0 | 0.00 | 0.00 | 0.00 | 39 | 1010.3 |
| 20260504231603 | 71 | 248 | 1.0 | 5.0 | 0.00 | 0.00 | 0.00 | 38 | 1010.3 |
| 20260504231518 | 71 | 248 | 1.0 | 5.0 | 0.00 | 0.00 | 0.00 | 38 | 1010.3 |
| 20260504231119 | 71 | 248 | 3.0 | 8.0 | 0.00 | 0.00 | 0.00 | 38 | 1010.4 |
| 20260504231018 | 71 | 248 | 3.0 | 8.0 | 0.00 | 0.00 | 0.00 | 38 | 1010.4 |
| 20260504230628 | 71 | 270 | 4.0 | 10.0 | 0.00 | 0.00 | 0.00 | 38 | 1010.3 |
| 20260504230517 | 71 | 270 | 4.0 | 10.0 | 0.00 | 0.00 | 0.00 | 38 | 1010.3 |
| 20260504230106 | 72 | 270 | 2.0 | 5.0 | 0.00 | 0.00 | 0.00 | 38 | 1010.2 |
| 20260504230018 | 72 | 270 | 2.0 | 5.0 | 0.00 | 0.00 | 0.00 | 38 | 1010.2 |
| 20260504225627 | 72 | 270 | 3.0 | 10.0 | 0.00 | 0.00 | 0.00 | 37 | 1010.1 |
| 20260504225518 | 72 | 270 | 3.0 | 10.0 | 0.00 | 0.00 | 0.00 | 37 | 1010.1 |
| 20260504225058 | 72 | 270 | 2.0 | 6.0 | 0.00 | 0.00 | 0.00 | 38 | 1010.2 |
| 20260504225017 | 72 | 270 | 2.0 | 6.0 | 0.00 | 0.00 | 0.00 | 38 | 1010.2 |
| 20260504224517 | 72 | 248 | 2.0 | 8.0 | 0.00 | 0.00 | 0.00 | 38 | 1010.2 |
| 20260504224102 | 71 | 270 | 2.0 | 6.0 | 0.00 | 0.00 | 0.00 | 38 | 1010.2 |
| 20260504224018 | 71 | 270 | 2.0 | 6.0 | 0.00 | 0.00 | 0.00 | 38 | 1010.2 |
| 20260504223557 | 72 | 248 | 4.0 | 10.0 | 0.00 | 0.00 | 0.00 | 37 | 1010.2 |
| 20260504223517 | 72 | 248 | 4.0 | 10.0 | 0.00 | 0.00 | 0.00 | 37 | 1010.2 |
| 20260504223017 | 72 | 248 | 2.0 | 6.0 | 0.00 | 0.00 | 0.00 | 37 | 1010.1 |
| 20260504222556 | 72 | 293 | 1.0 | 4.0 | 0.00 | 0.00 | 0.00 | 38 | 1010.1 |
| 20260504222518 | 72 | 293 | 1.0 | 4.0 | 0.00 | 0.00 | 0.00 | 38 | 1010.1 |
| 20260504222058 | 72 | 270 | 3.0 | 10.0 | 0.00 | 0.00 | 0.00 | 37 | 1010.1 |
| 20260504222018 | 72 | 270 | 3.0 | 10.0 | 0.00 | 0.00 | 0.00 | 37 | 1010.1 |
| 20260504221556 | 72 | 270 | 4.0 | 9.0 | 0.00 | 0.00 | 0.00 | 38 | 1010.1 |
| 20260504221517 | 72 | 270 | 4.0 | 9.0 | 0.00 | 0.00 | 0.00 | 38 | 1010.1 |
| 20260504221048 | 72 | 270 | 3.0 | 13.0 | 0.00 | 0.00 | 0.00 | 38 | 1010.2 |
| 20260504221017 | 72 | 270 | 3.0 | 13.0 | 0.00 | 0.00 | 0.00 | 38 | 1010.2 |
| 20260504220553 | 72 | 270 | 3.0 | 7.0 | 0.00 | 0.00 | 0.00 | 36 | 1010.3 |
| 20260504220517 | 72 | 270 | 3.0 | 7.0 | 0.00 | 0.00 | 0.00 | 36 | 1010.3 |
| 20260504220149 | 72 | 248 | 2.0 | 10.0 | 0.00 | 0.00 | 0.00 | 37 | 1010.3 |
| 20260504220037 | 72 | 270 | 3.0 | 11.0 | 0.00 | 0.00 | 0.00 | 36 | 1010.4 |
| 20260504215631 | 72 | 270 | 3.0 | 11.0 | 0.00 | 0.00 | 0.00 | 36 | 1010.4 |
| 20260504215517 | 72 | 270 | 3.0 | 11.0 | 0.00 | 0.00 | 0.00 | 36 | 1010.4 |
| 20260504215056 | 72 | 270 | 2.0 | 6.0 | 0.00 | 0.00 | 0.00 | 37 | 1010.4 |
| 20260504215017 | 72 | 270 | 2.0 | 6.0 | 0.00 | 0.00 | 0.00 | 37 | 1010.4 |
| 20260504214517 | 72 | 270 | 2.0 | 6.0 | 0.00 | 0.00 | 0.00 | 37 | 1010.4 |
| 20260504214018 | 72 | 270 | 5.0 | 12.0 | 0.00 | 0.00 | 0.00 | 36 | 1010.5 |
| 20260504213555 | 72 | 248 | 4.0 | 11.0 | 0.00 | 0.00 | 0.00 | 36 | 1010.4 |
| 20260504213517 | 72 | 248 | 4.0 | 11.0 | 0.00 | 0.00 | 0.00 | 36 | 1010.4 |
| 20260504213017 | 72 | 270 | 2.0 | 7.0 | 0.00 | 0.00 | 0.00 | 37 | 1010.5 |
| 20260504212553 | 72 | 270 | 3.0 | 6.0 | 0.00 | 0.00 | 0.00 | 36 | 1010.4 |
| 20260504212517 | 72 | 270 | 3.0 | 6.0 | 0.00 | 0.00 | 0.00 | 36 | 1010.4 |
| 20260504212018 | 72 | 248 | 3.0 | 6.0 | 0.00 | 0.00 | 0.00 | 36 | 1010.5 |
| 20260504211603 | 72 | 270 | 3.0 | 7.0 | 0.00 | 0.00 | 0.00 | 37 | 1010.5 |
| 20260504211517 | 72 | 270 | 3.0 | 7.0 | 0.00 | 0.00 | 0.00 | 37 | 1010.5 |
| 20260504211106 | 72 | 248 | 3.0 | 8.0 | 0.00 | 0.00 | 0.00 | 36 | 1010.5 |
| 20260504211017 | 72 | 248 | 3.0 | 8.0 | 0.00 | 0.00 | 0.00 | 36 | 1010.5 |
| 20260504210605 | 72 | 270 | 3.0 | 9.0 | 0.00 | 0.00 | 0.00 | 36 | 1010.5 |
| 20260504210518 | 72 | 270 | 3.0 | 9.0 | 0.00 | 0.00 | 0.00 | 36 | 1010.5 |
| 20260504210057 | 72 | 248 | 5.0 | 18.0 | 0.00 | 0.00 | 0.00 | 35 | 1010.6 |
| 20260504210017 | 72 | 248 | 5.0 | 18.0 | 0.00 | 0.00 | 0.00 | 35 | 1010.6 |
| 20260504205645 | 73 | 248 | 4.0 | 11.0 | 0.00 | 0.00 | 0.00 | 35 | 1010.5 |
| 20260504205517 | 73 | 248 | 4.0 | 11.0 | 0.00 | 0.00 | 0.00 | 35 | 1010.5 |
| 20260504205054 | 72 | 270 | 1.0 | 5.0 | 0.00 | 0.00 | 0.00 | 38 | 1010.5 |
| 20260504205017 | 72 | 270 | 1.0 | 5.0 | 0.00 | 0.00 | 0.00 | 38 | 1010.5 |
| 20260504204517 | 72 | 248 | 4.0 | 13.0 | 0.00 | 0.00 | 0.00 | 36 | 1010.5 |
| 20260504204018 | 73 | 248 | 4.0 | 11.0 | 0.00 | 0.00 | 0.00 | 35 | 1010.6 |
| 20260504203558 | 72 | 270 | 2.0 | 9.0 | 0.00 | 0.00 | 0.00 | 36 | 1010.6 |
| 20260504203517 | 72 | 270 | 2.0 | 9.0 | 0.00 | 0.00 | 0.00 | 36 | 1010.6 |
| 20260504203138 | 72 | 270 | 3.0 | 7.0 | 0.00 | 0.00 | 0.00 | 37 | 1010.6 |
| 20260504203017 | 72 | 270 | 3.0 | 7.0 | 0.00 | 0.00 | 0.00 | 37 | 1010.6 |
| 20260504202700 | 72 | 270 | 3.0 | 12.0 | 0.00 | 0.00 | 0.00 | 36 | 1010.6 |
| 20260504202517 | 72 | 270 | 3.0 | 12.0 | 0.00 | 0.00 | 0.00 | 36 | 1010.6 |
| 20260504202102 | 72 | 248 | 3.0 | 9.0 | 0.00 | 0.00 | 0.00 | 36 | 1010.5 |
| 20260504202018 | 72 | 248 | 3.0 | 9.0 | 0.00 | 0.00 | 0.00 | 36 | 1010.5 |
| 20260504201517 | 72 | 248 | 3.0 | 7.0 | 0.00 | 0.00 | 0.00 | 37 | 1010.4 |
| 20260504201114 | 72 | 248 | 4.0 | 9.0 | 0.00 | 0.00 | 0.00 | 35 | 1010.6 |
| 20260504201017 | 72 | 248 | 4.0 | 9.0 | 0.00 | 0.00 | 0.00 | 35 | 1010.6 |
| 20260504200606 | 72 | 270 | 3.0 | 6.0 | 0.00 | 0.00 | 0.00 | 35 | 1010.5 |
| 20260504200517 | 72 | 270 | 3.0 | 6.0 | 0.00 | 0.00 | 0.00 | 35 | 1010.5 |
| 20260504200106 | 72 | 270 | 4.0 | 10.0 | 0.00 | 0.00 | 0.00 | 36 | 1010.7 |
| 20260504200017 | 72 | 270 | 4.0 | 10.0 | 0.00 | 0.00 | 0.00 | 36 | 1010.7 |
| 20260504195559 | 72 | 270 | 4.0 | 10.0 | 0.00 | 0.00 | 0.00 | 37 | 1010.6 |
| 20260504195517 | 72 | 270 | 4.0 | 10.0 | 0.00 | 0.00 | 0.00 | 37 | 1010.6 |
| 20260504195103 | 72 | 270 | 5.0 | 18.0 | 0.00 | 0.00 | 0.00 | 35 | 1010.7 |
| 20260504195017 | 72 | 270 | 5.0 | 18.0 | 0.00 | 0.00 | 0.00 | 35 | 1010.7 |
| 20260504194605 | 72 | 270 | 2.0 | 9.0 | 0.00 | 0.00 | 0.00 | 36 | 1010.7 |
| 20260504194517 | 72 | 270 | 2.0 | 9.0 | 0.00 | 0.00 | 0.00 | 36 | 1010.7 |
| 20260504194107 | 72 | 270 | 3.0 | 9.0 | 0.00 | 0.00 | 0.00 | 36 | 1010.7 |
| 20260504194017 | 72 | 270 | 3.0 | 9.0 | 0.00 | 0.00 | 0.00 | 36 | 1010.7 |
| 20260504193630 | 72 | 270 | 5.0 | 10.0 | 0.00 | 0.00 | 0.00 | 35 | 1010.6 |
| 20260504193517 | 72 | 270 | 5.0 | 10.0 | 0.00 | 0.00 | 0.00 | 35 | 1010.6 |
| 20260504193018 | 72 | 248 | 3.0 | 8.0 | 0.00 | 0.00 | 0.00 | 36 | 1010.7 |
| 20260504192517 | 72 | 270 | 5.0 | 11.0 | 0.00 | 0.00 | 0.00 | 36 | 1010.7 |
| 20260504192121 | 72 | 248 | 4.0 | 10.0 | 0.00 | 0.00 | 0.00 | 37 | 1010.8 |
| 20260504192017 | 72 | 248 | 4.0 | 10.0 | 0.00 | 0.00 | 0.00 | 37 | 1010.8 |
| 20260504191559 | 72 | 248 | 5.0 | 11.0 | 0.00 | 0.00 | 0.00 | 36 | 1010.8 |
| 20260504191517 | 72 | 248 | 5.0 | 11.0 | 0.00 | 0.00 | 0.00 | 36 | 1010.8 |
| 20260504191117 | 72 | 270 | 4.0 | 9.0 | 0.00 | 0.00 | 0.00 | 36 | 1010.9 |
| 20260504191017 | 72 | 270 | 4.0 | 9.0 | 0.00 | 0.00 | 0.00 | 36 | 1010.9 |
| 20260504190517 | 72 | 270 | 3.0 | 8.0 | 0.00 | 0.00 | 0.00 | 36 | 1011.1 |
| 20260504190017 | 71 | 248 | 3.0 | 8.0 | 0.00 | 0.00 | 0.00 | 38 | 1011.1 |
| 20260504185558 | 71 | 270 | 3.0 | 11.0 | 0.00 | 0.00 | 0.00 | 36 | 1011.3 |
| 20260504185517 | 71 | 270 | 3.0 | 11.0 | 0.00 | 0.00 | 0.00 | 36 | 1011.3 |
| 20260504185114 | 71 | 270 | 3.0 | 8.0 | 0.00 | 0.00 | 0.00 | 37 | 1011.5 |
| 20260504185017 | 71 | 270 | 3.0 | 8.0 | 0.00 | 0.00 | 0.00 | 37 | 1011.5 |
| 20260504184517 | 71 | 248 | 4.0 | 9.0 | 0.00 | 0.00 | 0.00 | 38 | 1011.4 |
| 20260504184119 | 71 | 248 | 5.0 | 13.0 | 0.00 | 0.00 | 0.00 | 37 | 1011.4 |
| 20260504184017 | 71 | 248 | 5.0 | 13.0 | 0.00 | 0.00 | 0.00 | 37 | 1011.4 |
| 20260504183637 | 71 | 270 | 3.0 | 8.0 | 0.00 | 0.00 | 0.00 | 39 | 1011.5 |
| 20260504183517 | 71 | 270 | 3.0 | 8.0 | 0.00 | 0.00 | 0.00 | 39 | 1011.5 |
| 20260504183150 | 71 | 270 | 4.0 | 11.0 | 0.00 | 0.00 | 0.00 | 37 | 1011.7 |
| 20260504183017 | 71 | 270 | 4.0 | 11.0 | 0.00 | 0.00 | 0.00 | 37 | 1011.7 |
| 20260504182517 | 71 | 248 | 4.0 | 13.0 | 0.00 | 0.00 | 0.00 | 38 | 1011.7 |
| 20260504182017 | 71 | 270 | 3.0 | 6.0 | 0.00 | 0.00 | 0.00 | 38 | 1011.8 |
| 20260504181603 | 70 | 248 | 3.0 | 8.0 | 0.00 | 0.00 | 0.00 | 40 | 1011.7 |
| 20260504181517 | 70 | 248 | 3.0 | 8.0 | 0.00 | 0.00 | 0.00 | 40 | 1011.7 |
| 20260504181017 | 70 | 248 | 4.0 | 12.0 | 0.00 | 0.00 | 0.00 | 38 | 1011.9 |
| 20260504180605 | 70 | 270 | 5.0 | 13.0 | 0.00 | 0.00 | 0.00 | 39 | 1011.9 |
| 20260504180517 | 70 | 270 | 5.0 | 13.0 | 0.00 | 0.00 | 0.00 | 39 | 1011.9 |
| 20260504180122 | 71 | 248 | 4.0 | 9.0 | 0.00 | 0.00 | 0.00 | 37 | 1012.0 |
| 20260504180017 | 71 | 248 | 4.0 | 9.0 | 0.00 | 0.00 | 0.00 | 37 | 1012.0 |
| 20260504175608 | 71 | 270 | 2.0 | 8.0 | 0.00 | 0.00 | 0.00 | 37 | 1012.3 |
| 20260504175517 | 71 | 270 | 2.0 | 8.0 | 0.00 | 0.00 | 0.00 | 37 | 1012.3 |
| 20260504175145 | 70 | 248 | 4.0 | 11.0 | 0.00 | 0.00 | 0.00 | 39 | 1012.1 |
| 20260504175017 | 70 | 248 | 4.0 | 11.0 | 0.00 | 0.00 | 0.00 | 39 | 1012.1 |
| 20260504174517 | 70 | 270 | 3.0 | 8.0 | 0.00 | 0.00 | 0.00 | 38 | 1012.1 |
| 20260504174017 | 70 | 315 | 3.0 | 11.0 | 0.00 | 0.00 | 0.00 | 40 | 1012.3 |
| 20260504173634 | 70 | 270 | 4.0 | 9.0 | 0.00 | 0.00 | 0.00 | 38 | 1012.2 |
| 20260504173517 | 70 | 270 | 4.0 | 9.0 | 0.00 | 0.00 | 0.00 | 38 | 1012.2 |
| 20260504173017 | 70 | 270 | 4.0 | 9.0 | 0.00 | 0.00 | 0.00 | 38 | 1012.4 |
| 20260504172728 | 70 | 293 | 3.0 | 12.0 | 0.00 | 0.00 | 0.00 | 41 | 1012.2 |
| 20260504172517 | 70 | 293 | 3.0 | 12.0 | 0.00 | 0.00 | 0.00 | 41 | 1012.2 |
| 20260504172017 | 69 | 270 | 3.0 | 8.0 | 0.00 | 0.00 | 0.00 | 39 | 1012.5 |
| 20260504171602 | 69 | 248 | 4.0 | 13.0 | 0.00 | 0.00 | 0.00 | 39 | 1012.3 |
| 20260504171517 | 69 | 248 | 4.0 | 13.0 | 0.00 | 0.00 | 0.00 | 39 | 1012.3 |
| 20260504171121 | 68 | 270 | 4.0 | 13.0 | 0.00 | 0.00 | 0.00 | 40 | 1012.4 |
| 20260504171017 | 68 | 270 | 4.0 | 13.0 | 0.00 | 0.00 | 0.00 | 40 | 1012.4 |
| 20260504170611 | 69 | 270 | 6.0 | 13.0 | 0.00 | 0.00 | 0.00 | 38 | 1012.6 |
| 20260504170517 | 69 | 270 | 6.0 | 13.0 | 0.00 | 0.00 | 0.00 | 38 | 1012.6 |
| 20260504170104 | 69 | 270 | 4.0 | 15.0 | 0.00 | 0.00 | 0.00 | 39 | 1012.6 |
| 20260504160148 | 67 | 270 | 4.0 | 12.0 | 0.00 | 0.00 | 0.00 | 43 | 1013.7 |